Time;durP1;ratioP1;P1;durP2;ratioP2;P2;SDS_P1;SDS_P2;PMS_P1;PMS_P2;Temp;Humidity;BMP_temperature;BMP_pressure;BME280_temperature;BME280_humidity;BME280_pressure;Samples;Min_cycle;Max_cycle;Signal;HPM_P1;HPM_P2
2023/09/28 00:02:54;;;;;;;3.27;2.90;;;21.10;97.90;;;;;;5085531;28;20224;-87
2023/09/28 00:05:27;;;;;;;2.83;2.53;;;21.10;97.80;;;;;;5093743;28;20337;-87
2023/09/28 00:07:57;;;;;;;4.10;2.47;;;21.10;98.00;;;;;;5083929;28;20167;-88
2023/09/28 00:10:23;;;;;;;2.93;2.50;;;21.10;97.90;;;;;;5092589;28;20167;-88
2023/09/28 00:12:50;;;;;;;3.47;2.30;;;21.20;97.80;;;;;;5082873;28;20197;-87
2023/09/28 00:15:17;;;;;;;4.80;2.63;;;21.10;97.70;;;;;;5092864;28;20179;-87
2023/09/28 00:17:45;;;;;;;2.90;2.60;;;21.20;97.60;;;;;;5083945;28;20183;-87
2023/09/28 00:20:19;;;;;;;2.97;2.40;;;21.10;97.60;;;;;;5073904;28;20294;-87
2023/09/28 00:22:49;;;;;;;4.63;2.57;;;21.20;97.60;;;;;;5085394;28;20182;-87
2023/09/28 00:25:16;;;;;;;2.73;2.40;;;21.20;97.60;;;;;;5072980;28;20171;-87
2023/09/28 00:27:47;;;;;;;2.40;2.20;;;21.20;97.50;;;;;;5087079;28;20163;-87
2023/09/28 00:30:20;;;;;;;2.73;2.30;;;21.20;97.60;;;;;;5073449;28;20266;-87
2023/09/28 00:32:47;;;;;;;4.13;2.30;;;21.30;97.40;;;;;;5077433;28;20456;-87
2023/09/28 00:35:13;;;;;;;2.50;2.30;;;21.20;97.60;;;;;;5095421;28;20190;-88
2023/09/28 00:37:41;;;;;;;3.50;2.60;;;21.30;97.60;;;;;;5083794;28;20564;-87
2023/09/28 00:42:43;;;;;;;2.87;2.57;;;21.30;97.50;;;;;;5086158;28;20220;-87
2023/09/28 00:45:10;;;;;;;2.87;2.53;;;21.30;97.50;;;;;;5092803;28;20171;-87
2023/09/28 00:47:38;;;;;;;3.00;2.50;;;21.20;97.50;;;;;;5088603;28;20168;-88
2023/09/28 00:50:10;;;;;;;2.77;2.30;;;21.20;97.60;;;;;;5090164;28;20178;-88
2023/09/28 00:52:42;;;;;;;3.73;2.50;;;21.20;97.70;;;;;;5088230;28;20172;-87
2023/09/28 00:55:09;;;;;;;2.80;2.50;;;21.20;97.70;;;;;;5087174;28;20591;-88
2023/09/28 00:57:38;;;;;;;2.73;2.40;;;21.10;97.60;;;;;;5089459;28;20175;-88
2023/09/28 01:00:28;;;;;;;5.77;2.50;;;21.10;97.70;;;;;;5081251;28;20211;-87
2023/09/28 01:02:58;;;;;;;2.80;2.50;;;21.10;97.80;;;;;;5079480;28;20174;-87
2023/09/28 01:05:39;;;;;;;3.33;2.50;;;21.10;97.80;;;;;;5080876;28;20705;-87
2023/09/28 01:08:12;;;;;;;3.67;2.33;;;21.10;97.60;;;;;;5076293;28;20163;-88
2023/09/28 01:10:40;;;;;;;3.30;2.60;;;21.10;97.60;;;;;;5086730;28;20577;-87
2023/09/28 01:13:15;;;;;;;3.07;2.33;;;21.10;97.60;;;;;;5088803;28;20171;-87
2023/09/28 01:15:49;;;;;;;3.80;2.60;;;21.10;97.60;;;;;;5084546;28;20174;-87
2023/09/28 01:18:16;;;;;;;5.33;2.80;;;21.10;97.50;;;;;;5088303;28;20177;-87
2023/09/28 01:20:44;;;;;;;2.63;2.30;;;21.10;97.60;;;;;;5082088;28;20251;-87
2023/09/28 01:23:10;;;;;;;3.33;2.70;;;21.10;97.30;;;;;;5089892;28;20167;-87
2023/09/28 01:25:38;;;;;;;2.40;2.20;;;21.00;97.30;;;;;;5077039;28;20179;-87
2023/09/28 01:28:10;;;;;;;3.57;2.33;;;21.00;97.30;;;;;;5089831;28;20221;-87
2023/09/28 01:30:37;;;;;;;2.70;2.40;;;21.10;97.30;;;;;;5081718;28;20187;-88
2023/09/28 01:33:02;;;;;;;4.90;2.30;;;21.10;97.20;;;;;;5091436;28;20171;-86
2023/09/28 01:35:29;;;;;;;3.43;2.60;;;21.00;97.30;;;;;;5082103;28;20182;-87
2023/09/28 01:38:10;;;;;;;3.20;2.60;;;21.10;97.40;;;;;;5094484;28;20168;-87
2023/09/28 01:40:36;;;;;;;3.83;2.30;;;21.20;97.30;;;;;;5080997;28;20218;-87
2023/09/28 01:43:04;;;;;;;3.73;2.43;;;21.20;97.20;;;;;;5094883;28;20578;-88
2023/09/28 01:45:33;;;;;;;2.60;2.40;;;21.20;97.20;;;;;;5081521;28;20163;-87
2023/09/28 01:48:06;;;;;;;4.63;2.40;;;21.10;97.30;;;;;;5093787;28;20170;-87
2023/09/28 01:50:32;;;;;;;5.10;2.43;;;21.10;97.30;;;;;;5081967;28;20209;-87
2023/09/28 01:52:58;;;;;;;2.57;2.07;;;21.20;97.30;;;;;;5094084;28;20330;-87
2023/09/28 01:55:24;;;;;;;2.93;2.40;;;21.20;97.30;;;;;;5082791;28;20274;-88
2023/09/28 01:57:50;;;;;;;2.27;2.07;;;21.30;97.20;;;;;;5093238;28;20336;-87
2023/09/28 02:00:20;;;;;;;2.47;2.20;;;21.30;97.20;;;;;;5089705;28;20201;-87
2023/09/28 02:02:49;;;;;;;2.50;2.30;;;21.30;97.10;;;;;;5075830;28;20167;-87
2023/09/28 02:05:21;;;;;;;3.00;2.40;;;21.30;97.20;;;;;;5078780;28;20194;-87
2023/09/28 02:07:48;;;;;;;3.13;2.50;;;21.20;97.20;;;;;;5076716;28;20171;-87
2023/09/28 02:10:15;;;;;;;3.57;2.47;;;21.10;97.40;;;;;;5076656;28;20183;-88
2023/09/28 02:12:43;;;;;;;2.80;2.30;;;21.10;97.40;;;;;;5079091;28;20187;-87
2023/09/28 02:15:18;;;;;;;2.40;2.20;;;21.20;97.50;;;;;;5077211;28;20167;-88
2023/09/28 02:17:48;;;;;;;2.57;2.27;;;21.20;97.40;;;;;;5084686;28;20402;-87
2023/09/28 02:20:19;;;;;;;3.13;2.40;;;21.20;97.30;;;;;;5090153;28;20190;-88
2023/09/28 02:22:47;;;;;;;4.37;2.37;;;21.20;97.30;;;;;;5084018;28;20475;-87
2023/09/28 02:25:24;;;;;;;2.90;2.40;;;21.20;97.30;;;;;;5092227;28;20163;-87
2023/09/28 02:27:51;;;;;;;3.60;2.23;;;21.30;97.20;;;;;;5083066;28;20167;-87
2023/09/28 02:30:22;;;;;;;2.73;2.53;;;21.30;97.20;;;;;;5092016;28;20322;-87
2023/09/28 02:32:58;;;;;;;2.47;2.10;;;21.30;97.10;;;;;;5081626;28;20556;-87
2023/09/28 02:35:27;;;;;;;2.80;2.20;;;21.30;97.10;;;;;;5092909;28;20179;-87
2023/09/28 02:37:57;;;;;;;2.40;2.17;;;21.40;97.20;;;;;;5086656;28;20175;-87
2023/09/28 02:40:26;;;;;;;2.40;2.17;;;21.40;97.20;;;;;;5096241;28;20340;-88
2023/09/28 02:42:54;;;;;;;4.90;2.30;;;21.40;97.10;;;;;;5085938;28;20169;-88
2023/09/28 02:45:20;;;;;;;2.40;2.20;;;21.40;97.10;;;;;;5095474;28;20277;-87
2023/09/28 02:47:46;;;;;;;3.00;2.30;;;21.30;97.10;;;;;;5089074;28;20270;-87
2023/09/28 02:50:21;;;;;;;3.80;2.63;;;21.30;97.10;;;;;;5074869;28;20176;-87
2023/09/28 02:52:52;;;;;;;5.47;2.33;;;21.30;97.20;;;;;;5087016;28;20174;-87
2023/09/28 02:55:21;;;;;;;2.87;2.10;;;21.30;97.30;;;;;;5074802;28;20187;-87
2023/09/28 02:57:47;;;;;;;2.67;2.47;;;21.30;97.10;;;;;;5087666;28;20233;-87
2023/09/28 03:00:32;;;;;;;4.33;2.57;;;21.30;97.10;;;;;;5093182;28;20584;-87
2023/09/28 03:03:03;;;;;;;2.70;2.40;;;21.30;97.30;;;;;;5081047;28;20341;-87
2023/09/28 03:05:32;;;;;;;3.10;2.37;;;21.30;97.30;;;;;;5093484;28;20262;-87
2023/09/28 03:07:58;;;;;;;3.13;2.20;;;21.30;97.30;;;;;;5079537;28;20365;-88
2023/09/28 03:10:24;;;;;;;2.70;2.40;;;21.30;97.20;;;;;;5072552;28;20439;-87
2023/09/28 03:12:51;;;;;;;2.93;2.50;;;21.30;97.20;;;;;;5075879;28;20213;-87
2023/09/28 03:15:20;;;;;;;3.00;2.37;;;21.20;97.40;;;;;;5093922;28;20170;-87
2023/09/28 03:17:46;;;;;;;2.90;2.20;;;21.20;97.50;;;;;;5086912;28;20174;-87
2023/09/28 03:20:21;;;;;;;3.37;2.53;;;21.20;97.40;;;;;;5092274;28;20499;-86
2023/09/28 03:22:50;;;;;;;2.60;2.10;;;21.10;97.60;;;;;;5088157;28;20447;-87
2023/09/28 03:25:23;;;;;;;4.07;2.53;;;21.10;97.60;;;;;;5089173;28;20175;-87
2023/09/28 03:27:57;;;;;;;3.37;2.33;;;21.20;97.70;;;;;;5089155;28;20176;-88
2023/09/28 03:30:24;;;;;;;2.87;2.07;;;21.20;97.70;;;;;;5088770;28;20174;-87
2023/09/28 03:32:51;;;;;;;4.47;2.47;;;21.20;97.50;;;;;;5090741;28;20171;-87
2023/09/28 03:35:18;;;;;;;5.10;2.50;;;21.20;97.50;;;;;;5088231;28;20629;-87
2023/09/28 03:37:45;;;;;;;2.40;2.20;;;21.20;97.50;;;;;;5094428;28;20428;-87
2023/09/28 03:40:12;;;;;;;4.50;2.20;;;21.30;97.50;;;;;;5086453;28;20275;-87
2023/09/28 03:42:43;;;;;;;3.47;2.37;;;21.30;97.50;;;;;;5093599;28;20577;-88
2023/09/28 03:45:14;;;;;;;3.63;2.20;;;21.30;97.50;;;;;;5084205;28;20445;-87
2023/09/28 03:47:41;;;;;;;2.57;2.33;;;21.30;97.40;;;;;;5090220;28;20189;-87
2023/09/28 03:50:12;;;;;;;2.60;2.23;;;21.30;97.40;;;;;;5081760;28;20659;-87
2023/09/28 03:52:42;;;;;;;2.40;2.20;;;21.30;97.40;;;;;;5091176;28;20178;-87
2023/09/28 03:55:19;;;;;;;2.93;2.23;;;21.30;97.40;;;;;;5080686;28;20552;-88
2023/09/28 03:57:45;;;;;;;2.43;2.20;;;21.30;97.40;;;;;;5090411;28;20179;-88
2023/09/28 04:00:12;;;;;;;3.10;2.30;;;21.30;97.40;;;;;;5085648;28;20280;-87
2023/09/28 04:02:42;;;;;;;4.30;2.07;;;21.30;97.40;;;;;;5071027;28;20214;-87
2023/09/28 04:05:14;;;;;;;3.30;2.37;;;21.40;97.40;;;;;;5083990;28;20182;-88
2023/09/28 04:07:43;;;;;;;3.43;2.30;;;21.30;97.40;;;;;;5071560;28;20498;-87
2023/09/28 04:10:12;;;;;;;1.97;1.80;;;21.30;97.40;;;;;;5085823;28;20231;-87
2023/09/28 04:12:40;;;;;;;2.83;2.23;;;21.30;97.40;;;;;;5071988;28;20541;-87
2023/09/28 04:15:07;;;;;;;2.23;2.03;;;21.30;97.40;;;;;;5076781;28;20182;-87
2023/09/28 04:17:37;;;;;;;2.33;2.13;;;21.30;97.40;;;;;;5092415;28;20171;-87
2023/09/28 04:20:12;;;;;;;2.20;2.00;;;21.40;97.40;;;;;;5082692;28;20210;-88
2023/09/28 04:22:39;;;;;;;2.53;2.10;;;21.40;97.40;;;;;;5090846;28;20458;-87
2023/09/28 04:25:05;;;;;;;2.13;1.90;;;21.30;97.40;;;;;;5084633;28;20180;-87
2023/09/28 04:27:34;;;;;;;2.90;2.30;;;21.40;97.40;;;;;;5088941;28;20171;-87
2023/09/28 04:29:59;;;;;;;3.23;2.17;;;21.30;97.50;;;;;;5086956;28;20188;-88
2023/09/28 04:32:27;;;;;;;2.43;2.13;;;21.30;97.50;;;;;;5087048;28;20187;-87
2023/09/28 04:34:56;;;;;;;2.60;2.40;;;21.30;97.50;;;;;;5088672;28;20190;-87
2023/09/28 04:37:23;;;;;;;2.23;2.03;;;21.30;97.50;;;;;;5083758;28;20575;-87
2023/09/28 04:39:48;;;;;;;2.40;2.20;;;21.30;97.60;;;;;;5089097;28;20201;-87
2023/09/28 04:42:14;;;;;;;2.60;2.20;;;21.30;97.50;;;;;;5081059;28;20178;-87
2023/09/28 04:44:43;;;;;;;2.10;1.87;;;21.30;97.60;;;;;;5091886;28;20163;-87
2023/09/28 04:47:10;;;;;;;3.47;2.10;;;21.30;97.60;;;;;;5079361;28;20171;-87
2023/09/28 04:49:35;;;;;;;5.30;2.80;;;21.30;97.60;;;;;;5089221;28;20450;-88
2023/09/28 04:52:04;;;;;;;4.13;2.33;;;21.30;97.70;;;;;;5079695;28;20186;-88
2023/09/28 04:54:33;;;;;;;4.97;3.97;;;21.30;97.70;;;;;;5092618;28;20241;-88
2023/09/28 04:57:01;;;;;;;2.67;2.47;;;21.30;97.70;;;;;;5089044;28;20186;-87
2023/09/28 04:59:27;;;;;;;3.23;2.60;;;21.30;97.70;;;;;;5077952;28;20199;-87
2023/09/28 05:01:57;;;;;;;2.70;2.40;;;21.30;97.80;;;;;;5085735;28;20294;-88
2023/09/28 05:04:23;;;;;;;3.37;2.67;;;21.30;97.80;;;;;;5068583;28;20217;-86
2023/09/28 05:06:48;;;;;;;2.60;2.40;;;21.30;98.10;;;;;;5075079;28;20369;-86
2023/09/28 05:09:18;;;;;;;3.33;2.80;;;21.30;97.80;;;;;;5089298;28;20171;-86
2023/09/28 05:11:47;;;;;;;3.33;2.70;;;21.30;97.80;;;;;;5082580;28;20410;-86
2023/09/28 05:14:15;;;;;;;2.70;2.50;;;21.30;97.90;;;;;;5074393;28;20222;-86
2023/09/28 05:16:41;;;;;;;2.37;2.10;;;21.30;97.90;;;;;;5076380;28;20266;-86
2023/09/28 05:19:06;;;;;;;3.93;2.37;;;21.30;97.90;;;;;;5075021;28;20290;-86
2023/09/28 05:21:32;;;;;;;3.00;2.30;;;21.30;98.10;;;;;;5071812;28;20310;-86
2023/09/28 05:24:01;;;;;;;3.70;2.67;;;21.30;98.20;;;;;;5072022;28;20290;-86
2023/09/28 05:26:26;;;;;;;2.93;2.60;;;21.30;98.20;;;;;;5066490;28;20199;-86
2023/09/28 05:28:52;;;;;;;2.70;2.43;;;21.30;98.30;;;;;;5074960;28;20230;-86
2023/09/28 05:31:20;;;;;;;2.87;2.57;;;21.30;98.40;;;;;;5065343;28;20195;-86
2023/09/28 05:33:50;;;;;;;3.77;2.60;;;21.30;98.40;;;;;;5074276;28;20657;-86
2023/09/28 05:36:15;;;;;;;4.53;2.80;;;21.40;98.40;;;;;;5063818;28;20588;-86
2023/09/28 05:38:41;;;;;;;3.70;2.70;;;21.30;98.50;;;;;;5070559;28;20169;-86
2023/09/28 05:41:10;;;;;;;4.03;2.67;;;21.30;98.60;;;;;;5082041;28;20317;-86
2023/09/28 05:43:36;;;;;;;4.93;2.97;;;21.30;98.60;;;;;;5068365;28;20578;-86
2023/09/28 05:46:02;;;;;;;5.33;3.00;;;21.30;98.70;;;;;;5063178;28;20258;-86
2023/09/28 05:48:27;;;;;;;3.53;2.87;;;21.30;98.70;;;;;;5073633;28;20194;-86
2023/09/28 05:50:56;;;;;;;6.77;3.30;;;21.30;98.70;;;;;;5062677;28;20172;-86
2023/09/28 05:53:25;;;;;;;3.93;3.07;;;21.30;98.80;;;;;;5073991;28;20269;-86
2023/09/28 05:55:51;;;;;;;5.50;2.93;;;21.30;98.80;;;;;;5066438;28;20469;-86
2023/09/28 05:58:20;;;;;;;4.27;3.13;;;21.30;98.80;;;;;;5070206;28;20268;-86
2023/09/28 06:00:45;;;;;;;9.23;2.93;;;21.30;98.80;;;;;;5079850;28;20198;-86
2023/09/28 06:03:17;;;;;;;3.40;2.90;;;21.40;98.90;;;;;;5077256;28;20194;-86
2023/09/28 06:05:43;;;;;;;3.70;3.20;;;21.40;98.90;;;;;;5060642;28;20359;-85
2023/09/28 06:08:12;;;;;;;3.77;3.00;;;21.30;98.80;;;;;;5073296;28;20171;-86
2023/09/28 06:10:38;;;;;;;3.43;3.00;;;21.30;98.80;;;;;;5077329;28;20422;-86
2023/09/28 06:13:04;;;;;;;5.70;3.33;;;21.30;98.70;;;;;;5081161;28;20176;-87
2023/09/28 06:15:30;;;;;;;4.13;3.13;;;21.40;98.80;;;;;;5073634;28;20185;-86
2023/09/28 06:17:58;;;;;;;3.30;3.00;;;21.40;98.80;;;;;;5082418;28;20171;-87
2023/09/28 06:20:27;;;;;;;4.73;3.13;;;21.40;98.70;;;;;;5072500;28;20415;-86
2023/09/28 06:22:56;;;;;;;4.63;3.20;;;21.40;98.80;;;;;;5083173;28;20227;-87
2023/09/28 06:25:21;;;;;;;4.20;3.00;;;21.50;98.70;;;;;;5076673;28;20179;-86
2023/09/28 06:27:47;;;;;;;3.47;3.10;;;21.50;98.60;;;;;;5065906;28;20186;-87
2023/09/28 06:30:13;;;;;;;4.93;2.90;;;21.50;98.70;;;;;;5076886;28;20202;-86
2023/09/28 06:32:41;;;;;;;4.83;3.10;;;21.50;98.60;;;;;;5066636;28;20626;-86
2023/09/28 06:35:09;;;;;;;5.60;3.43;;;21.50;98.60;;;;;;5076513;28;20310;-87
2023/09/28 06:37:34;;;;;;;4.57;3.10;;;21.50;98.60;;;;;;5060414;28;20545;-86
2023/09/28 06:40:00;;;;;;;4.43;3.27;;;21.50;98.70;;;;;;5070978;28;20266;-86
2023/09/28 06:42:25;;;;;;;3.73;3.10;;;21.50;98.70;;;;;;5060148;28;20595;-86
2023/09/28 06:44:51;;;;;;;3.30;3.00;;;21.50;98.70;;;;;;5069588;28;20235;-86
2023/09/28 06:47:17;;;;;;;4.20;2.87;;;21.50;98.70;;;;;;5063351;28;20233;-86
2023/09/28 06:49:44;;;;;;;4.27;2.83;;;21.50;98.80;;;;;;5064981;28;20281;-86
2023/09/28 06:52:12;;;;;;;4.63;3.10;;;21.60;98.80;;;;;;5066233;28;20180;-86
2023/09/28 06:54:38;;;;;;;3.30;2.80;;;21.60;98.60;;;;;;5066088;28;20305;-86
2023/09/28 06:57:07;;;;;;;3.97;3.00;;;21.60;98.50;;;;;;5070535;28;20210;-86
2023/09/28 06:59:34;;;;;;;3.70;2.90;;;21.70;98.30;;;;;;5073662;28;20249;-86
2023/09/28 07:01:59;;;;;;;3.70;3.00;;;21.70;98.30;;;;;;5070697;28;20553;-86
2023/09/28 07:04:29;;;;;;;3.60;3.20;;;21.80;98.40;;;;;;5069027;28;20174;-86
2023/09/28 07:06:58;;;;;;;5.20;3.07;;;21.80;98.10;;;;;;5067057;28;20249;-86
2023/09/28 07:09:24;;;;;;;3.90;3.00;;;21.90;98.10;;;;;;5080095;28;20236;-87
2023/09/28 07:11:53;;;;;;;5.63;3.00;;;21.90;98.10;;;;;;5071100;28;20268;-86
2023/09/28 07:14:21;;;;;;;3.27;2.97;;;21.90;97.90;;;;;;5060421;28;20187;-86
2023/09/28 07:16:50;;;;;;;4.03;2.73;;;21.90;97.90;;;;;;5071256;28;20175;-86
2023/09/28 07:19:22;;;;;;;4.30;3.03;;;22.00;98.00;;;;;;5058967;28;20262;-86
2023/09/28 07:21:51;;;;;;;4.07;3.10;;;22.00;97.80;;;;;;5074624;28;20379;-86
2023/09/28 07:24:21;;;;;;;3.77;2.97;;;22.00;97.50;;;;;;5065212;28;20174;-86
2023/09/28 07:26:47;;;;;;;3.53;2.97;;;22.10;97.90;;;;;;5076228;28;20182;-86
2023/09/28 07:29:12;;;;;;;4.70;2.97;;;22.10;97.70;;;;;;5068507;28;20183;-86
2023/09/28 07:31:39;;;;;;;3.27;2.73;;;22.10;97.60;;;;;;5077300;28;20709;-86
2023/09/28 07:34:07;;;;;;;4.17;2.83;;;22.10;97.70;;;;;;5084628;28;20356;-87
2023/09/28 07:36:35;;;;;;;3.13;2.73;;;22.20;97.60;;;;;;5077727;28;20172;-87
2023/09/28 07:39:05;;;;;;;4.43;2.83;;;22.20;97.80;;;;;;5083330;28;20264;-87
2023/09/28 07:41:33;;;;;;;4.90;3.03;;;22.20;97.50;;;;;;5081977;28;20164;-87
2023/09/28 07:43:59;;;;;;;3.20;2.90;;;22.20;97.60;;;;;;5070164;28;20168;-87
2023/09/28 07:46:25;;;;;;;3.97;2.80;;;22.30;97.70;;;;;;5067471;28;20407;-87
2023/09/28 07:48:50;;;;;;;3.27;2.97;;;22.30;97.20;;;;;;5079200;28;20447;-87
2023/09/28 07:51:19;;;;;;;3.13;2.70;;;22.40;97.50;;;;;;5084184;28;20174;-87
2023/09/28 07:53:46;;;;;;;3.27;2.70;;;22.40;97.40;;;;;;5086747;28;20228;-87
2023/09/28 07:56:11;;;;;;;4.03;3.07;;;22.40;97.40;;;;;;5084076;28;20182;-87
2023/09/28 07:58:37;;;;;;;5.47;2.90;;;22.40;97.40;;;;;;5085563;28;20167;-87
2023/09/28 08:01:03;;;;;;;5.10;3.00;;;22.40;97.60;;;;;;5083698;28;20548;-87
2023/09/28 08:03:29;;;;;;;3.23;2.93;;;22.40;97.30;;;;;;5083207;28;20186;-87
2023/09/28 08:05:54;;;;;;;3.60;2.77;;;22.40;97.10;;;;;;5084523;28;20183;-87
2023/09/28 08:08:20;;;;;;;3.30;2.70;;;22.50;97.20;;;;;;5090086;28;20228;-87
2023/09/28 08:10:48;;;;;;;3.53;2.90;;;22.50;97.00;;;;;;5094142;28;20171;-87
2023/09/28 08:13:15;;;;;;;3.77;2.77;;;22.60;97.20;;;;;;5084111;28;20186;-87
2023/09/28 08:15:41;;;;;;;3.87;2.83;;;22.60;97.00;;;;;;5085181;28;20402;-87
2023/09/28 08:18:09;;;;;;;3.30;2.90;;;22.60;97.00;;;;;;5079481;28;20513;-87
2023/09/28 08:20:34;;;;;;;3.47;2.90;;;22.60;97.20;;;;;;5066416;28;20287;-87
2023/09/28 08:23:00;;;;;;;4.63;2.80;;;22.50;97.20;;;;;;5071981;28;20673;-87
2023/09/28 08:25:26;;;;;;;4.33;2.70;;;22.50;97.50;;;;;;5082680;28;20170;-87
2023/09/28 08:27:52;;;;;;;4.87;3.00;;;22.50;97.30;;;;;;5080098;28;20210;-87
2023/09/28 08:30:17;;;;;;;4.73;2.70;;;22.60;97.60;;;;;;5068759;28;20206;-87
2023/09/28 08:32:43;;;;;;;2.90;2.60;;;22.50;97.50;;;;;;5066326;28;20175;-88
2023/09/28 08:35:11;;;;;;;4.50;3.00;;;22.60;97.40;;;;;;5073227;28;20448;-87
2023/09/28 08:37:36;;;;;;;3.67;2.63;;;22.70;97.20;;;;;;5066623;28;20185;-87
2023/09/28 08:40:04;;;;;;;3.60;3.03;;;22.80;97.00;;;;;;5079247;28;20211;-87
2023/09/28 08:42:34;;;;;;;4.03;3.00;;;22.90;97.00;;;;;;5082187;28;20179;-87
2023/09/28 08:45:01;;;;;;;4.23;3.13;;;22.80;96.80;;;;;;5074466;28;20406;-87
2023/09/28 08:47:31;;;;;;;3.40;2.73;;;22.90;97.20;;;;;;5084120;28;20258;-87
2023/09/28 08:49:58;;;;;;;3.57;2.60;;;22.80;96.80;;;;;;5072226;28;20218;-87
2023/09/28 08:52:27;;;;;;;4.97;2.80;;;22.80;97.20;;;;;;5085285;28;20178;-88
2023/09/28 08:54:53;;;;;;;3.53;2.90;;;22.80;96.90;;;;;;5072997;28;20177;-88
2023/09/28 08:57:22;;;;;;;4.57;2.87;;;22.80;97.00;;;;;;5083869;28;20187;-87
2023/09/28 08:59:52;;;;;;;2.90;2.60;;;22.70;97.30;;;;;;5051244;28;20297;-87
2023/09/28 09:02:21;;;;;;;3.33;2.73;;;22.70;97.20;;;;;;5085124;28;20398;-88
2023/09/28 09:04:46;;;;;;;3.53;2.67;;;22.70;97.00;;;;;;5070764;28;20270;-88
2023/09/28 09:07:16;;;;;;;3.60;2.57;;;22.70;97.10;;;;;;5081198;28;20239;-88
2023/09/28 09:09:45;;;;;;;5.40;2.57;;;22.70;97.20;;;;;;5074618;28;20183;-88
2023/09/28 09:12:11;;;;;;;3.57;2.50;;;22.60;97.20;;;;;;5079365;28;20190;-88
2023/09/28 09:14:40;;;;;;;3.87;2.63;;;22.60;97.20;;;;;;5076418;28;20168;-88
2023/09/28 09:17:08;;;;;;;4.43;3.00;;;22.70;97.20;;;;;;5079668;28;20243;-88
2023/09/28 09:19:35;;;;;;;3.60;2.60;;;22.70;97.50;;;;;;5077929;28;20323;-88
2023/09/28 09:22:04;;;;;;;3.80;2.80;;;22.70;97.20;;;;;;5083482;28;20175;-88
2023/09/28 09:24:33;;;;;;;3.70;2.97;;;22.70;97.40;;;;;;5079929;28;20172;-87
2023/09/28 09:27:09;;;;;;;3.43;2.50;;;22.70;98.00;;;;;;5073181;28;20175;-87
2023/09/28 09:29:38;;;;;;;4.47;2.90;;;22.60;97.30;;;;;;5066395;28;20201;-87
2023/09/28 09:32:05;;;;;;;2.77;2.47;;;22.60;97.40;;;;;;5073448;28;20598;-87
2023/09/28 09:34:32;;;;;;;3.73;2.70;;;22.60;97.30;;;;;;5066077;28;20298;-87
2023/09/28 09:37:01;;;;;;;2.90;2.53;;;22.70;97.30;;;;;;5076467;28;20282;-87
2023/09/28 09:39:30;;;;;;;3.90;2.70;;;22.60;97.30;;;;;;5063536;28;20527;-87
2023/09/28 09:41:57;;;;;;;4.33;2.67;;;22.60;97.40;;;;;;5081061;28;20178;-87
2023/09/28 09:44:27;;;;;;;3.77;2.53;;;22.70;97.50;;;;;;5088341;28;20438;-87
2023/09/28 09:46:57;;;;;;;3.27;2.77;;;22.70;97.80;;;;;;5076725;28;20564;-88
2023/09/28 09:49:30;;;;;;;2.40;2.17;;;22.60;97.40;;;;;;5077088;28;20400;-87
2023/09/28 09:52:03;;;;;;;5.20;2.67;;;22.60;97.40;;;;;;5076371;28;20599;-87
2023/09/28 09:54:32;;;;;;;3.63;2.57;;;22.70;97.50;;;;;;5064702;28;20419;-87
2023/09/28 09:57:03;;;;;;;4.60;3.00;;;22.60;97.40;;;;;;5076253;28;20729;-87
2023/09/28 09:59:31;;;;;;;4.07;2.90;;;22.70;98.40;;;;;;5070947;28;20211;-87
2023/09/28 10:01:59;;;;;;;2.93;2.60;;;22.70;98.00;;;;;;5069835;28;20211;-87
2023/09/28 10:04:26;;;;;;;3.57;2.60;;;22.70;97.90;;;;;;5083430;28;20562;-87
2023/09/28 10:06:56;;;;;;;2.80;2.40;;;22.70;97.80;;;;;;5078971;28;20236;-87
2023/09/28 10:09:22;;;;;;;5.60;2.97;;;22.70;97.80;;;;;;5084431;28;20484;-86
2023/09/28 10:11:50;;;;;;;4.73;3.03;;;22.70;98.70;;;;;;5074119;28;20414;-87
2023/09/28 10:14:20;;;;;;;4.27;2.93;;;22.70;99.10;;;;;;5079818;28;20214;-87
2023/09/28 10:16:53;;;;;;;4.77;2.80;;;22.70;99.00;;;;;;5073482;28;20557;-87
2023/09/28 10:19:22;;;;;;;5.43;3.10;;;22.70;99.00;;;;;;5081527;28;20195;-87
2023/09/28 10:21:50;;;;;;;4.00;3.03;;;22.70;99.30;;;;;;5078261;28;20342;-87
2023/09/28 10:24:17;;;;;;;3.07;2.70;;;22.70;99.20;;;;;;5066328;28;20199;-87
2023/09/28 10:26:52;;;;;;;3.83;2.70;;;22.70;98.70;;;;;;5067825;28;20167;-87
2023/09/28 10:29:20;;;;;;;4.20;2.80;;;22.70;98.30;;;;;;5069477;28;20179;-87
2023/09/28 10:31:46;;;;;;;5.53;3.10;;;22.70;99.20;;;;;;5067059;28;20541;-87
2023/09/28 10:34:19;;;;;;;4.30;2.80;;;22.70;99.60;;;;;;5071582;28;20207;-87
2023/09/28 10:39:33;;;;;;;6.47;3.20;;;22.70;99.90;;;;;;5083045;28;20241;-87
2023/09/28 10:42:13;;;;;;;5.73;2.80;;;22.70;98.80;;;;;;5076927;28;20167;-87
2023/09/28 10:44:56;;;;;;;7.87;3.23;;;22.70;98.60;;;;;;5073624;28;20213;-87
2023/09/28 10:47:22;;;;;;;4.63;3.00;;;22.80;99.40;;;;;;5076702;28;20190;-87
2023/09/28 10:49:49;;;;;;;4.40;2.80;;;22.80;98.90;;;;;;5067267;28;20318;-87
2023/09/28 10:52:16;;;;;;;5.20;2.90;;;22.80;98.60;;;;;;5062975;28;20343;-87
2023/09/28 10:54:44;;;;;;;5.63;2.90;;;22.90;98.50;;;;;;5071369;28;20414;-87
2023/09/28 10:57:13;;;;;;;4.50;3.03;;;22.90;98.40;;;;;;5063047;28;20185;-87
2023/09/28 10:59:41;;;;;;;5.80;3.33;;;22.90;98.20;;;;;;5077717;28;20198;-87
2023/09/28 11:02:11;;;;;;;5.70;2.77;;;23.00;99.00;;;;;;5083344;28;20167;-87
2023/09/28 11:04:41;;;;;;;5.53;3.03;;;22.90;98.70;;;;;;5073816;28;20556;-87
2023/09/28 11:07:07;;;;;;;3.27;2.70;;;23.00;98.80;;;;;;5064434;28;20206;-87
2023/09/28 11:09:32;;;;;;;4.53;2.87;;;23.00;98.60;;;;;;5075932;28;20721;-87
2023/09/28 11:11:58;;;;;;;3.87;2.90;;;23.00;98.50;;;;;;5063513;28;20278;-87
2023/09/28 11:14:27;;;;;;;4.87;2.73;;;23.00;98.50;;;;;;5079576;28;20394;-87
2023/09/28 11:16:53;;;;;;;5.53;3.23;;;23.00;98.30;;;;;;5091987;28;20167;-87
2023/09/28 11:19:20;;;;;;;4.47;2.90;;;23.00;98.80;;;;;;5074087;28;20242;-87
2023/09/28 11:21:46;;;;;;;7.23;3.33;;;23.00;98.60;;;;;;5064138;28;20312;-87
2023/09/28 11:24:12;;;;;;;5.00;2.70;;;23.00;98.40;;;;;;5073858;28;20210;-87
2023/09/28 11:26:39;;;;;;;6.10;2.93;;;23.10;98.50;;;;;;5068422;28;20652;-87
2023/09/28 11:29:05;;;;;;;5.87;2.80;;;23.00;98.20;;;;;;5072672;28;20179;-87
2023/09/28 11:31:35;;;;;;;7.87;3.00;;;23.10;98.40;;;;;;5069837;28;20696;-87
2023/09/28 11:34:02;;;;;;;6.17;3.23;;;23.10;98.50;;;;;;5067524;28;20270;-87
2023/09/28 11:36:35;;;;;;;3.73;3.20;;;23.10;98.40;;;;;;5073146;28;20191;-87
2023/09/28 11:39:03;;;;;;;7.17;3.53;;;23.10;98.60;;;;;;5070307;28;20175;-87
2023/09/28 11:41:29;;;;;;;5.97;3.23;;;23.10;98.50;;;;;;5071594;28;20270;-87
2023/09/28 11:43:58;;;;;;;4.53;3.10;;;23.10;98.60;;;;;;5066305;28;20175;-86
2023/09/28 11:46:33;;;;;;;4.50;2.90;;;23.10;98.60;;;;;;5071866;28;20168;-86
2023/09/28 11:49:13;;;;;;;3.83;2.73;;;23.10;98.50;;;;;;5062330;28;20235;-87
2023/09/28 11:51:40;;;;;;;3.53;2.93;;;23.10;98.50;;;;;;5074011;28;20180;-87
2023/09/28 11:54:11;;;;;;;3.33;2.90;;;23.20;98.40;;;;;;5082117;28;20177;-87
2023/09/28 11:56:44;;;;;;;4.37;3.00;;;23.10;98.50;;;;;;5071438;28;20218;-88
2023/09/28 11:59:09;;;;;;;5.57;2.83;;;23.20;98.40;;;;;;5068988;28;20233;-87
2023/09/28 12:01:39;;;;;;;5.80;2.73;;;23.20;98.70;;;;;;5068177;28;20164;-88
2023/09/28 12:04:04;;;;;;;5.80;3.20;;;23.20;98.50;;;;;;5077929;28;20445;-87
2023/09/28 12:06:33;;;;;;;4.43;2.70;;;23.20;98.40;;;;;;5066570;28;20419;-87
2023/09/28 12:09:03;;;;;;;4.37;3.00;;;23.20;98.60;;;;;;5077299;28;20178;-87
2023/09/28 12:11:28;;;;;;;6.63;2.90;;;23.20;98.50;;;;;;5072183;28;20172;-87
2023/09/28 12:13:54;;;;;;;4.83;2.90;;;23.20;98.60;;;;;;5059233;28;20207;-87
2023/09/28 12:16:22;;;;;;;6.03;2.90;;;23.20;98.70;;;;;;5070951;28;20433;-87
2023/09/28 12:18:51;;;;;;;6.47;2.80;;;23.20;98.60;;;;;;5068951;28;20679;-87
2023/09/28 12:21:20;;;;;;;3.57;3.00;;;23.30;98.70;;;;;;5078776;28;20444;-87
2023/09/28 12:23:46;;;;;;;6.90;2.80;;;23.30;98.80;;;;;;5066497;28;20166;-87
2023/09/28 12:26:15;;;;;;;4.97;2.87;;;23.30;98.70;;;;;;5078936;28;20175;-87
2023/09/28 12:28:41;;;;;;;4.83;2.70;;;23.30;98.80;;;;;;5073549;28;20396;-87
2023/09/28 12:31:08;;;;;;;4.37;2.87;;;23.30;98.70;;;;;;5079454;28;20453;-88
2023/09/28 12:33:35;;;;;;;4.67;2.83;;;23.30;98.70;;;;;;5077425;28;20660;-87
2023/09/28 12:36:01;;;;;;;3.60;2.90;;;23.30;98.70;;;;;;5076174;28;20470;-88
2023/09/28 12:38:27;;;;;;;3.53;2.50;;;23.30;98.90;;;;;;5075335;28;20170;-88
2023/09/28 12:40:55;;;;;;;5.53;3.10;;;23.30;99.00;;;;;;5081273;28;20273;-87
2023/09/28 12:43:26;;;;;;;4.27;2.63;;;23.30;98.80;;;;;;5074345;28;20171;-88
2023/09/28 12:45:51;;;;;;;4.50;2.73;;;23.30;98.80;;;;;;5085917;28;20171;-88
2023/09/28 12:48:19;;;;;;;6.03;2.90;;;23.30;98.80;;;;;;5074585;28;20182;-88
2023/09/28 12:50:46;;;;;;;4.13;2.73;;;23.30;98.70;;;;;;5082206;28;20241;-88
2023/09/28 12:53:16;;;;;;;5.30;2.80;;;23.40;98.60;;;;;;5072135;28;20182;-87
2023/09/28 12:55:42;;;;;;;3.57;3.03;;;23.40;98.60;;;;;;5062742;28;20580;-88
2023/09/28 12:58:07;;;;;;;4.07;2.63;;;23.40;98.50;;;;;;5068644;28;20167;-87
2023/09/28 13:00:33;;;;;;;3.83;2.50;;;23.40;98.50;;;;;;5074338;28;20207;-88